Time;durP1;ratioP1;P1;durP2;ratioP2;P2;SDS_P1;SDS_P2;PMS_P1;PMS_P2;Temp;Humidity;BMP_temperature;BMP_pressure;BME280_temperature;BME280_humidity;BME280_pressure;Samples;Min_cycle;Max_cycle;Signal;HPM_P1;HPM_P2
2021/10/09 00:01:27;;;;;;;4.55;2.00;;;;;;;20.26;67.86;101378.44;143720;924;47013;-67
2021/10/09 00:03:54;;;;;;;5.53;2.10;;;;;;;20.27;68.13;101382.81;143724;646;47006;-67
2021/10/09 00:06:21;;;;;;;2.80;1.67;;;;;;;20.27;67.87;101380.09;143722;572;48000;-67
2021/10/09 00:08:47;;;;;;;3.95;1.90;;;;;;;20.28;68.11;101366.19;143726;810;46010;-67
2021/10/09 00:11:19;;;;;;;3.67;2.03;;;;;;;20.27;68.04;101371.91;143722;573;48002;-67
2021/10/09 00:13:46;;;;;;;4.60;2.10;;;;;;;20.26;68.02;101381.16;143727;577;46006;-68
2021/10/09 00:16:14;;;;;;;3.37;1.70;;;;;;;20.29;67.72;101383.41;143720;588;48011;-67
2021/10/09 00:18:41;;;;;;;2.87;2.20;;;;;;;20.27;68.29;101377.38;143716;573;48002;-67
2021/10/09 00:21:07;;;;;;;5.05;2.30;;;;;;;20.21;68.14;101368.25;143714;718;47013;-67
2021/10/09 00:23:45;;;;;;;2.62;1.90;;;;;;;20.20;67.66;101372.09;143717;694;47006;-67
2021/10/09 00:26:15;;;;;;;2.50;1.33;;;;;;;20.23;67.66;101384.38;143719;570;48007;-67
2021/10/09 00:28:46;;;;;;;2.65;1.23;;;;;;;20.26;67.51;101378.44;143714;701;47010;-67
2021/10/09 00:31:13;;;;;;;2.78;1.20;;;;;;;20.29;67.49;101377.94;143705;584;48013;-67
2021/10/09 00:33:39;;;;;;;3.90;1.60;;;;;;;20.31;67.62;101381.22;143720;593;47000;-67
2021/10/09 00:36:05;;;;;;;2.90;1.60;;;;;;;20.34;67.90;101377.19;143718;716;47004;-67
2021/10/09 00:38:32;;;;;;;2.85;1.58;;;;;;;20.36;68.15;101375.87;143711;577;48008;-69
2021/10/09 00:40:58;;;;;;;4.95;1.42;;;;;;;20.37;67.67;101369.34;143722;588;47002;-67
2021/10/09 00:43:25;;;;;;;1.55;1.02;;;;;;;20.40;67.61;101371.56;143715;604;47006;-67
2021/10/09 00:45:57;;;;;;;2.05;1.20;;;;;;;20.41;67.68;101373.22;143720;600;47004;-66
2021/10/09 00:48:26;;;;;;;1.83;1.23;;;;;;;20.40;67.65;101360.66;143717;768;47011;-67
2021/10/09 00:50:53;;;;;;;2.75;1.35;;;;;;;20.40;67.72;101360.66;143711;566;49004;-67
2021/10/09 00:53:22;;;;;;;3.60;1.67;;;;;;;20.41;67.25;101362.31;143716;579;47006;-67
2021/10/09 00:55:52;;;;;;;3.10;1.33;;;;;;;20.40;67.30;101359.81;143719;599;47010;-67
2021/10/09 00:58:19;;;;;;;3.50;1.60;;;;;;;20.40;66.98;101363.38;143715;637;47010;-67
2021/10/09 01:00:47;;;;;;;3.03;1.62;;;;;;;20.41;67.33;101365.03;143717;603;48002;-67
2021/10/09 01:03:13;;;;;;;2.40;1.27;;;;;;;20.42;67.17;101363.13;143712;602;48006;-66
2021/10/09 01:05:40;;;;;;;2.22;1.15;;;;;;;20.37;66.75;101355.69;143717;648;47004;-66
2021/10/09 01:08:06;;;;;;;2.67;1.30;;;;;;;20.32;66.79;101357.53;143715;575;47010;-68
2021/10/09 01:10:33;;;;;;;2.83;1.40;;;;;;;20.30;66.42;101360.47;143721;569;47004;-67
2021/10/09 01:13:03;;;;;;;1.83;1.20;;;;;;;20.33;66.55;101353.72;143708;572;47006;-67
2021/10/09 01:15:32;;;;;;;2.08;1.40;;;;;;;20.35;66.44;101357.84;143717;633;47006;-68
2021/10/09 01:18:07;;;;;;;2.20;1.40;;;;;;;20.37;66.48;101355.69;143716;594;47008;-67
2021/10/09 01:21:05;;;;;;;1.67;1.20;;;;;;;20.37;66.55;101352.16;143712;572;48002;-67
2021/10/09 01:23:35;;;;;;;2.42;1.30;;;;;;;20.38;66.47;101351.91;143714;576;47006;-67
2021/10/09 01:26:02;;;;;;;2.40;1.40;;;;;;;20.40;66.30;101351.63;143715;598;47006;-67
2021/10/09 01:28:29;;;;;;;2.78;1.00;;;;;;;20.40;66.94;101332.53;143713;665;48010;-68
2021/10/09 01:30:56;;;;;;;2.35;1.05;;;;;;;20.38;66.35;101331.97;143715;573;47004;-69
2021/10/09 01:33:23;;;;;;;1.80;0.90;;;;;;;20.40;66.36;101335.25;143718;568;47006;-67
2021/10/09 01:35:53;;;;;;;2.28;0.90;;;;;;;20.40;65.98;101336.09;143719;588;47002;-65
2021/10/09 01:38:22;;;;;;;3.12;1.08;;;;;;;20.41;66.34;101326.84;143720;652;47008;-67
2021/10/09 01:40:49;;;;;;;2.03;1.00;;;;;;;20.38;66.02;101315.63;143713;609;48004;-67
2021/10/09 01:43:18;;;;;;;3.35;0.93;;;;;;;20.34;65.62;101318.00;143712;567;48006;-66
2021/10/09 01:45:45;;;;;;;2.08;1.00;;;;;;;20.35;66.67;101327.03;143721;572;47002;-66
2021/10/09 01:48:12;;;;;;;2.17;1.00;;;;;;;20.37;66.54;101330.34;143715;567;47011;-67
2021/10/09 01:50:38;;;;;;;1.70;1.12;;;;;;;20.39;66.38;101325.41;143713;767;50016;-67
2021/10/09 01:53:07;;;;;;;1.80;1.10;;;;;;;20.38;66.32;101316.44;143713;599;48006;-67
2021/10/09 01:55:38;;;;;;;2.95;1.45;;;;;;;20.38;66.48;101318.34;143718;630;48005;-67
2021/10/09 01:58:06;;;;;;;2.00;0.90;;;;;;;20.38;66.16;101324.63;143716;599;47010;-67
2021/10/09 02:00:33;;;;;;;2.33;1.30;;;;;;;20.40;66.75;101308.81;143714;605;49002;-68
2021/10/09 02:03:03;;;;;;;3.75;1.02;;;;;;;20.40;66.33;101314.28;143709;587;48006;-66
2021/10/09 02:05:30;;;;;;;1.70;1.08;;;;;;;20.42;66.69;101319.47;143719;573;47010;-66
2021/10/09 02:07:57;;;;;;;2.00;1.00;;;;;;;20.43;66.87;101326.59;143716;601;47010;-67
2021/10/09 02:10:23;;;;;;;1.98;1.50;;;;;;;20.42;66.53;101335.84;143712;636;47004;-66
2021/10/09 02:12:50;;;;;;;2.30;1.80;;;;;;;20.44;66.64;101333.69;143716;599;47006;-67
2021/10/09 02:15:21;;;;;;;2.67;1.80;;;;;;;20.44;65.73;101323.62;143718;578;48006;-67
2021/10/09 02:26:02;;;;;;;1.83;1.30;;;;;;;20.44;65.60;101334.53;143715;686;48002;-67
2021/10/09 02:28:29;;;;;;;3.65;1.70;;;;;;;20.47;66.49;101332.37;143716;568;47008;-67
2021/10/09 02:30:55;;;;;;;2.85;1.70;;;;;;;20.45;66.26;101333.47;143717;769;48004;-66
2021/10/09 02:33:22;;;;;;;3.62;2.12;;;;;;;20.44;65.86;101330.97;143712;598;47006;-67
2021/10/09 02:35:49;;;;;;;3.83;2.75;;;;;;;20.43;65.82;101334.75;143716;615;49003;-67
2021/10/09 02:38:16;;;;;;;3.62;2.90;;;;;;;20.46;66.23;101345.19;143716;576;47010;-68
2021/10/09 02:40:43;;;;;;;3.45;2.45;;;;;;;20.44;65.91;101336.44;143711;705;49002;-66
2021/10/09 02:43:10;;;;;;;3.90;2.35;;;;;;;20.45;65.71;101332.63;143716;727;47006;-66
2021/10/09 02:45:37;;;;;;;2.92;1.33;;;;;;;20.44;66.63;101334.53;143718;748;48011;-67
2021/10/09 02:48:05;;;;;;;1.70;1.20;;;;;;;20.44;66.46;101344.59;143715;592;47011;-67
2021/10/09 02:50:31;;;;;;;2.17;1.50;;;;;;;20.43;66.85;101338.34;143715;578;48002;-67
2021/10/09 02:52:58;;;;;;;2.28;1.67;;;;;;;20.43;66.39;101338.34;143715;567;47007;-67
2021/10/09 02:55:25;;;;;;;3.08;1.30;;;;;;;20.44;66.13;101326.34;143720;568;48002;-68
2021/10/09 02:57:52;;;;;;;2.67;1.52;;;;;;;20.45;66.47;101328.00;143714;572;47010;-66
2021/10/09 03:00:20;;;;;;;2.15;1.40;;;;;;;20.45;66.30;101336.19;143716;752;48002;-67
2021/10/09 03:02:46;;;;;;;2.42;1.40;;;;;;;20.47;65.67;101337.84;143715;600;47006;-66
2021/10/09 03:05:13;;;;;;;1.73;1.30;;;;;;;20.45;65.27;101333.47;143716;641;48004;-67
2021/10/09 03:07:40;;;;;;;3.62;1.37;;;;;;;20.41;65.09;101334.19;143717;614;47010;-67
2021/10/09 03:10:08;;;;;;;2.25;1.17;;;;;;;20.39;65.36;101339.91;143718;591;47004;-66
2021/10/09 03:12:35;;;;;;;3.50;1.60;;;;;;;20.42;66.03;101341.28;143715;625;47006;-66
2021/10/09 03:15:02;;;;;;;1.85;1.10;;;;;;;20.44;65.87;101339.16;143718;735;49000;-66
2021/10/09 03:17:28;;;;;;;3.03;1.42;;;;;;;20.46;65.64;101345.19;143717;614;47011;-67
2021/10/09 03:19:55;;;;;;;1.98;1.20;;;;;;;20.45;65.35;101333.47;143713;591;48004;-66
2021/10/09 03:22:21;;;;;;;2.92;1.62;;;;;;;20.46;65.88;101339.72;143716;567;47006;-67
2021/10/09 03:24:48;;;;;;;1.87;1.37;;;;;;;20.45;65.97;101352.56;143714;581;50000;-67
2021/10/09 03:27:14;;;;;;;3.67;1.70;;;;;;;20.45;66.54;101358.03;143714;613;47010;-66
2021/10/09 03:29:40;;;;;;;1.83;1.30;;;;;;;20.45;65.71;101343.53;143715;572;48008;-67
2021/10/09 03:32:07;;;;;;;2.10;1.50;;;;;;;20.42;65.26;101336.69;143717;574;47006;-66
2021/10/09 03:34:33;;;;;;;2.28;1.52;;;;;;;20.38;65.35;101345.63;143715;707;47004;-66
2021/10/09 03:37:04;;;;;;;2.40;1.30;;;;;;;20.41;65.83;101348.66;143716;589;47010;-68
2021/10/09 03:39:32;;;;;;;2.50;1.10;;;;;;;20.45;66.44;101346.25;143713;636;49002;-67
2021/10/09 03:42:06;;;;;;;3.45;1.60;;;;;;;20.45;66.31;101349.00;143715;574;47006;-67
2021/10/09 03:44:38;;;;;;;2.45;1.67;;;;;;;20.44;66.32;101347.34;143720;629;47002;-67
2021/10/09 03:47:18;;;;;;;2.80;2.00;;;;;;;20.42;66.40;101353.06;143714;736;48011;-67
2021/10/09 03:49:54;;;;;;;3.30;1.83;;;;;;;20.42;66.40;101360.41;143705;569;50004;-67
2021/10/09 03:52:38;;;;;;;2.83;1.67;;;;;;;20.40;65.36;101357.09;143715;573;47006;-67
2021/10/09 03:55:10;;;;;;;3.90;1.77;;;;;;;20.42;65.64;101354.94;143717;827;48002;-67
2021/10/09 03:57:37;;;;;;;2.78;1.70;;;;;;;20.42;65.99;101355.78;143716;966;47010;-67
2021/10/09 04:00:06;;;;;;;3.67;1.92;;;;;;;20.40;66.23;101349.75;143716;611;48004;-67
2021/10/09 04:02:32;;;;;;;2.42;1.52;;;;;;;20.38;65.70;101357.34;143717;572;47006;-67
2021/10/09 04:04:59;;;;;;;2.87;1.65;;;;;;;20.40;66.00;101354.34;143721;574;47004;-67
2021/10/09 04:07:25;;;;;;;2.12;1.62;;;;;;;20.41;66.89;101351.41;143716;573;47010;-66
2021/10/09 04:09:52;;;;;;;3.97;1.80;;;;;;;20.42;65.98;101361.25;143718;582;47004;-67
2021/10/09 04:12:18;;;;;;;2.87;1.60;;;;;;;20.42;66.51;101361.25;143715;685;48014;-67
2021/10/09 04:14:45;;;;;;;3.00;1.75;;;;;;;20.42;65.90;101355.78;143717;737;48002;-68
2021/10/09 04:17:12;;;;;;;2.87;1.70;;;;;;;20.43;66.22;101356.59;143715;950;47011;-66
2021/10/09 04:19:38;;;;;;;3.50;2.10;;;;;;;20.41;65.45;101350.56;143713;676;48004;-67
2021/10/09 04:22:05;;;;;;;4.07;2.00;;;;;;;20.41;65.79;101365.03;143716;798;47006;-67
2021/10/09 04:24:32;;;;;;;3.37;2.00;;;;;;;20.44;66.09;101361.81;143718;567;47004;-65
2021/10/09 04:26:58;;;;;;;3.12;1.90;;;;;;;20.45;66.66;101354.44;143718;802;48008;-66
2021/10/09 04:29:25;;;;;;;3.58;1.83;;;;;;;20.43;65.92;101351.97;143715;593;47008;-64
2021/10/09 04:31:52;;;;;;;3.87;2.20;;;;;;;20.41;66.24;101359.59;143715;593;48006;-66
2021/10/09 04:34:19;;;;;;;3.05;2.08;;;;;;;20.40;65.88;101359.81;143717;590;48002;-67
2021/10/09 04:36:45;;;;;;;4.18;2.25;;;;;;;20.42;66.29;101360.41;143711;588;48010;-66
2021/10/09 04:39:13;;;;;;;4.05;2.00;;;;;;;20.44;66.39;101372.72;143712;577;48004;-67
2021/10/09 04:41:39;;;;;;;4.78;2.35;;;;;;;20.43;66.45;101365.63;143715;608;48004;-68
2021/10/09 04:44:07;;;;;;;4.37;2.33;;;;;;;20.43;66.32;101354.72;143717;602;48000;-67
2021/10/09 04:46:33;;;;;;;6.03;2.47;;;;;;;20.44;66.63;101363.72;143715;581;48011;-67
2021/10/09 04:49:00;;;;;;;3.97;2.22;;;;;;;20.43;66.11;101368.34;143720;580;47004;-67
2021/10/09 04:51:26;;;;;;;7.78;2.65;;;;;;;20.45;66.07;101370.81;143716;575;47007;-68
2021/10/09 04:53:53;;;;;;;7.18;2.30;;;;;;;20.45;66.42;101371.66;143716;585;47005;-67
2021/10/09 04:56:19;;;;;;;5.05;2.17;;;;;;;20.43;65.86;101372.97;143713;595;49008;-67
2021/10/09 04:58:46;;;;;;;4.10;2.20;;;;;;;20.45;66.21;101382.56;143718;566;47004;-67
2021/10/09 05:01:12;;;;;;;5.85;2.25;;;;;;;20.45;65.56;101388.03;143710;601;48007;-67
2021/10/09 05:03:38;;;;;;;5.35;2.60;;;;;;;20.45;65.76;101379.84;143716;572;48010;-67
2021/10/09 05:06:05;;;;;;;3.40;2.17;;;;;;;20.48;65.52;101381.25;143716;697;48004;-67
2021/10/09 05:08:31;;;;;;;4.55;2.17;;;;;;;20.45;65.15;101385.31;143710;674;48004;-67
2021/10/09 05:10:58;;;;;;;4.43;2.42;;;;;;;20.46;65.32;101391.56;143714;572;48006;-66
2021/10/09 05:13:25;;;;;;;4.78;2.60;;;;;;;20.49;65.87;101395.69;143720;595;47004;-67
2021/10/09 05:15:51;;;;;;;3.55;2.70;;;;;;;20.50;66.26;101406.37;143710;663;48008;-67
2021/10/09 05:18:17;;;;;;;4.85;2.00;;;;;;;20.50;65.67;101413.72;143713;567;48002;-66
2021/10/09 05:20:44;;;;;;;5.25;1.92;;;;;;;20.51;65.99;101404.47;143714;784;47006;-67
2021/10/09 05:23:10;;;;;;;3.30;1.70;;;;;;;20.53;65.90;101407.78;143720;714;47004;-67
2021/10/09 05:25:37;;;;;;;3.60;2.00;;;;;;;20.54;66.02;101396.63;143711;572;48008;-66
2021/10/09 05:28:11;;;;;;;5.87;2.03;;;;;;;20.56;65.46;101416.28;143719;593;48008;-66
2021/10/09 05:30:45;;;;;;;4.25;2.00;;;;;;;20.51;64.90;101415.38;143713;585;47006;-66
2021/10/09 05:33:20;;;;;;;2.92;1.92;;;;;;;20.54;65.78;101412.16;143720;567;47006;-66
2021/10/09 05:35:46;;;;;;;4.32;1.95;;;;;;;20.54;65.07;101410.28;143715;589;48010;-66
2021/10/09 05:38:13;;;;;;;5.00;2.30;;;;;;;20.55;65.06;101420.13;143718;584;47004;-66
2021/10/09 05:40:40;;;;;;;4.85;2.05;;;;;;;20.58;65.93;101424.25;143716;740;47006;-66
2021/10/09 05:43:06;;;;;;;4.68;2.70;;;;;;;20.57;66.00;101426.13;143717;675;48004;-66
2021/10/09 05:45:34;;;;;;;5.55;3.00;;;;;;;20.61;65.69;101423.75;143713;635;51008;-66
2021/10/09 05:48:00;;;;;;;4.30;2.30;;;;;;;20.63;65.69;101429.78;143717;580;47004;-65
2021/10/09 05:50:32;;;;;;;4.68;2.60;;;;;;;20.67;65.45;101430.91;143714;723;47006;-66
2021/10/09 05:53:10;;;;;;;7.30;2.55;;;;;;;20.67;65.79;101439.09;143719;665;47007;-66
2021/10/09 05:58:35;;;;;;;3.78;2.55;;;;;;;20.65;64.06;101426.78;143714;574;48008;-66
2021/10/09 06:01:23;;;;;;;7.40;3.35;;;;;;;20.67;65.44;101439.09;143709;579;49004;-66
2021/10/09 06:26:02;;;;;;;5.53;3.47;;;;;;;20.71;66.48;101467.56;143713;589;49011;-66
2021/10/09 07:01:21;;;;;;;4.05;3.47;;;;;;;20.75;65.35;101519.75;143718;690;47920;-66
2021/10/09 07:03:48;;;;;;;4.50;3.12;;;;;;;20.72;64.95;101517.53;143716;588;47010;-67
2021/10/09 07:06:16;;;;;;;4.05;3.10;;;;;;;20.75;66.28;101520.63;143707;573;49004;-65
2021/10/09 07:08:43;;;;;;;4.95;3.65;;;;;;;20.79;67.00;101526.41;143721;588;47006;-66
2021/10/09 07:11:13;;;;;;;5.87;4.00;;;;;;;20.81;67.16;101528.91;143723;588;47012;-64
2021/10/09 07:13:40;;;;;;;7.45;4.53;;;;;;;20.83;67.00;101529.47;143724;601;47006;-67
2021/10/09 07:16:09;;;;;;;6.50;4.75;;;;;;;20.82;66.97;101520.47;143719;598;47011;-65
2021/10/09 07:18:35;;;;;;;8.88;5.25;;;;;;;20.84;66.93;101529.25;143719;679;47008;-66
2021/10/09 07:21:01;;;;;;;13.23;5.22;;;;;;;20.86;66.80;101524.34;143712;656;47012;-67
2021/10/09 07:23:28;;;;;;;6.37;4.70;;;;;;;20.92;66.84;101529.88;143716;635;47006;-66
2021/10/09 07:25:54;;;;;;;7.12;4.95;;;;;;;20.95;66.73;101534.84;143711;580;48008;-66
2021/10/09 07:28:21;;;;;;;8.43;4.18;;;;;;;20.98;66.41;101539.81;143722;576;47006;-66
2021/10/09 07:30:47;;;;;;;5.00;4.20;;;;;;;21.00;65.76;101537.66;143712;803;48008;-66
2021/10/09 07:33:14;;;;;;;6.80;3.33;;;;;;;20.99;65.20;101547.78;143718;670;47004;-66
2021/10/09 07:35:40;;;;;;;8.70;3.80;;;;;;;21.02;64.85;101538.25;143715;582;48004;-66
2021/10/09 07:38:07;;;;;;;8.55;3.55;;;;;;;21.05;64.69;101546.78;143720;648;47010;-66
2021/10/09 07:40:33;;;;;;;5.57;3.42;;;;;;;21.07;65.02;101552.00;143707;568;49004;-66
2021/10/09 07:43:00;;;;;;;6.62;3.15;;;;;;;21.09;65.42;101552.56;143720;577;47004;-66
2021/10/09 07:45:26;;;;;;;5.35;3.05;;;;;;;21.09;65.43;101562.66;143715;586;47006;-66
2021/10/09 07:47:53;;;;;;;3.97;2.85;;;;;;;21.07;65.51;101557.47;143719;588;48000;-66
2021/10/09 07:50:19;;;;;;;3.75;3.05;;;;;;;21.06;65.12;101553.06;143716;681;47010;-66
2021/10/09 07:52:45;;;;;;;4.10;2.65;;;;;;;21.07;64.51;101562.09;143721;598;47002;-66
2021/10/09 07:55:12;;;;;;;4.25;2.97;;;;;;;21.07;65.70;101567.53;143718;632;48000;-66
2021/10/09 07:57:39;;;;;;;6.40;4.30;;;;;;;21.07;64.67;101573.84;143715;604;48004;-66
2021/10/09 08:00:06;;;;;;;5.68;3.00;;;;;;;21.08;64.04;101570.03;143715;588;47011;-66
2021/10/09 08:02:35;;;;;;;6.18;3.20;;;;;;;21.08;64.49;101571.94;143719;665;47004;-65
2021/10/09 08:05:03;;;;;;;7.18;3.65;;;;;;;21.04;64.47;101575.16;143715;568;47006;-66
2021/10/09 08:07:30;;;;;;;4.37;3.80;;;;;;;21.02;64.53;101571.84;143721;590;47010;-66
2021/10/09 08:09:57;;;;;;;5.80;3.70;;;;;;;21.05;65.52;101578.72;143716;602;47015;-66
2021/10/09 08:12:23;;;;;;;5.82;4.35;;;;;;;21.07;64.89;101581.19;143719;566;47004;-67
2021/10/09 08:14:50;;;;;;;6.57;5.90;;;;;;;21.10;64.77;101584.25;143705;597;49007;-67
2021/10/09 08:17:16;;;;;;;5.75;4.35;;;;;;;21.12;65.24;101579.37;143718;573;48000;-67
2021/10/09 08:19:42;;;;;;;8.77;4.32;;;;;;;21.12;66.21;101573.09;143714;643;48010;-67
2021/10/09 08:22:10;;;;;;;6.95;3.80;;;;;;;21.11;65.86;101576.91;143720;612;47004;-67
2021/10/09 08:38:48;;;;;;;6.57;3.35;;;;;;;21.09;65.68;101592.72;143720;572;47006;-68
2021/10/09 08:41:16;;;;;;;3.78;2.58;;;;;;;21.07;65.82;101582.03;143717;572;47010;-67
2021/10/09 08:43:48;;;;;;;5.68;3.55;;;;;;;21.12;66.34;101584.84;143718;630;48005;-70
2021/10/09 08:46:15;;;;;;;6.37;4.05;;;;;;;21.18;66.07;101578.38;143717;573;47006;-70
2021/10/09 08:48:46;;;;;;;6.47;5.37;;;;;;;21.28;66.20;101582.34;143715;601;47010;-69
2021/10/09 08:51:12;;;;;;;9.88;5.00;;;;;;;21.31;67.06;101587.31;143720;581;47008;-66
2021/10/09 08:53:43;;;;;;;9.10;5.62;;;;;;;21.36;67.07;101590.94;143719;579;47004;-68
2021/10/09 08:56:26;;;;;;;5.25;3.90;;;;;;;21.38;66.83;101587.97;143717;575;47006;-66
2021/10/09 08:59:29;;;;;;;5.40;3.30;;;;;;;21.36;65.92;101595.59;143723;594;48000;-66
2021/10/09 09:02:17;;;;;;;5.37;3.60;;;;;;;21.37;66.30;101594.53;143720;600;47004;-67
2021/10/09 09:07:48;;;;;;;4.35;3.12;;;;;;;21.47;65.06;101589.19;143721;614;47922;-66
2021/10/09 09:33:10;;;;;;;4.37;3.33;;;;;;;21.62;65.16;101599.56;143720;591;47004;-66
2021/10/09 09:38:55;;;;;;;4.32;2.78;;;;;;;21.58;64.81;101606.56;143716;567;47008;-66
2021/10/09 09:41:24;;;;;;;3.62;3.20;;;;;;;21.57;64.73;101604.91;143718;584;47004;-66
2021/10/09 09:43:53;;;;;;;6.00;3.42;;;;;;;21.59;64.90;101604.69;143721;598;47004;-65
2021/10/09 09:46:29;;;;;;;4.40;3.92;;;;;;;21.58;64.41;101597.56;143712;590;48002;-66
2021/10/09 09:48:55;;;;;;;4.55;3.70;;;;;;;21.62;65.44;101590.56;143718;579;47004;-66
2021/10/09 09:51:23;;;;;;;4.85;4.00;;;;;;;21.65;65.22;101585.41;143716;567;47006;-66
2021/10/09 09:53:51;;;;;;;6.10;4.78;;;;;;;21.68;65.55;101594.19;143724;568;47010;-67
2021/10/09 09:56:18;;;;;;;7.22;5.50;;;;;;;21.69;65.33;101590.38;143718;577;47008;-67
2021/10/09 09:58:54;;;;;;;6.80;5.05;;;;;;;21.73;65.76;101596.97;143722;569;48002;-67
2021/10/09 10:01:22;;;;;;;6.95;5.35;;;;;;;21.84;65.85;101603.41;143720;572;47004;-66
2021/10/09 10:03:50;;;;;;;6.40;5.40;;;;;;;21.85;64.80;101594.97;143718;582;48004;-66
2021/10/09 10:06:17;;;;;;;6.05;5.28;;;;;;;22.02;64.51;101596.81;143714;569;48010;-67
2021/10/09 10:08:44;;;;;;;5.47;4.60;;;;;;;22.11;63.31;101595.28;143720;586;47004;-67
2021/10/09 10:11:12;;;;;;;4.68;3.78;;;;;;;22.21;63.05;101597.31;143722;607;47006;-67
2021/10/09 10:13:42;;;;;;;5.20;4.43;;;;;;;22.32;61.96;101595.50;143722;575;47004;-67
2021/10/09 10:16:11;;;;;;;5.57;4.15;;;;;;;22.50;62.43;101602.59;143718;572;48004;-67
2021/10/09 10:19:03;;;;;;;3.83;2.70;;;;;;;22.79;61.11;101586.69;143722;581;47004;-65
2021/10/09 10:21:45;;;;;;;3.87;3.47;;;;;;;23.08;61.01;101583.69;143721;597;47006;-65
2021/10/09 10:24:13;;;;;;;5.12;3.70;;;;;;;23.25;60.58;101583.53;143716;595;47010;-66
2021/10/09 10:26:39;;;;;;;4.68;4.10;;;;;;;23.37;61.20;101585.28;143714;596;47008;-65
2021/10/09 10:29:25;;;;;;;4.95;3.72;;;;;;;23.37;60.48;101583.34;143716;712;49002;-66
2021/10/09 10:32:21;;;;;;;5.32;3.58;;;;;;;23.28;60.06;101577.53;143715;676;49006;-66
2021/10/09 10:34:49;;;;;;;4.30;2.90;;;;;;;23.16;59.38;101590.59;143723;589;48011;-66
2021/10/09 10:37:35;;;;;;;4.40;3.35;;;;;;;23.16;60.05;101588.66;143715;617;47011;-66
2021/10/09 10:40:01;;;;;;;4.15;3.75;;;;;;;23.21;59.55;101587.91;143713;597;49004;-65
2021/10/09 10:42:29;;;;;;;4.32;2.67;;;;;;;23.08;59.73;101580.94;143714;569;48000;-65
2021/10/09 10:45:07;;;;;;;7.32;3.47;;;;;;;22.94;59.65;101588.75;143721;599;47010;-65
2021/10/09 10:48:05;;;;;;;3.80;3.10;;;;;;;22.82;59.88;101585.38;143721;693;47010;-65
2021/10/09 10:51:04;;;;;;;3.97;3.58;;;;;;;22.78;60.12;101579.56;143719;569;47008;-65
2021/10/09 10:54:37;;;;;;;6.55;4.15;;;;;;;22.72;61.26;101580.62;143717;600;48006;-64
2021/10/09 10:57:22;;;;;;;7.90;5.55;;;;;;;22.61;60.88;101579.72;143722;640;48000;-69
2021/10/09 10:59:57;;;;;;;6.75;4.57;;;;;;;22.62;60.74;101583.25;143726;610;47011;-69
2021/10/09 11:02:29;;;;;;;5.43;4.55;;;;;;;22.59;60.95;101583.78;143723;583;47002;-69
2021/10/09 11:05:01;;;;;;;7.72;4.43;;;;;;;22.54;60.67;101582.66;143723;665;47007;-69
2021/10/09 11:07:35;;;;;;;8.45;5.40;;;;;;;22.49;59.74;101590.00;143724;586;47004;-69
2021/10/09 11:10:19;;;;;;;7.07;4.35;;;;;;;22.42;59.62;101592.91;143722;582;47010;-69
2021/10/09 11:12:50;;;;;;;7.10;5.57;;;;;;;22.36;59.42;101589.25;143722;649;47013;-69
2021/10/09 11:15:25;;;;;;;8.02;5.25;;;;;;;22.35;58.62;101578.59;143725;570;47006;-69
2021/10/09 11:18:03;;;;;;;6.03;5.18;;;;;;;22.38;58.49;101575.34;143727;583;47002;-66
2021/10/09 11:20:36;;;;;;;7.82;4.65;;;;;;;22.43;59.08;101582.81;143724;568;47009;-66
2021/10/09 11:23:05;;;;;;;9.15;5.62;;;;;;;22.43;58.97;101585.53;143723;577;47004;-68
2021/10/09 11:25:37;;;;;;;9.35;6.70;;;;;;;22.42;59.09;101584.69;143722;702;47006;-66
2021/10/09 11:28:06;;;;;;;9.65;5.15;;;;;;;22.40;59.04;101589.59;143718;584;49006;-66
2021/10/09 11:30:33;;;;;;;10.70;5.87;;;;;;;22.38;59.85;101586.28;143721;572;47002;-66
2021/10/09 11:33:00;;;;;;;8.32;5.55;;;;;;;22.37;59.87;101590.91;143721;583;49002;-66
2021/10/09 11:35:36;;;;;;;7.85;4.15;;;;;;;22.36;59.69;101585.72;143718;583;48000;-67
2021/10/09 11:38:19;;;;;;;7.03;4.78;;;;;;;22.38;59.39;101584.38;143725;692;47002;-64
2021/10/09 11:40:51;;;;;;;7.68;5.18;;;;;;;22.39;59.53;101583.28;143724;592;47008;-64
2021/10/09 11:43:30;;;;;;;9.23;5.05;;;;;;;22.39;58.88;101582.47;143722;582;47004;-64
2021/10/09 11:46:23;;;;;;;5.75;4.22;;;;;;;22.39;59.24;101585.19;143724;572;47006;-65
2021/10/09 11:54:35;;;;;;;9.25;5.15;;;;;;;22.34;59.38;101585.94;143725;687;47004;-65
2021/10/09 11:57:04;;;;;;;5.93;4.68;;;;;;;22.34;58.86;101583.22;143722;576;48006;-64
2021/10/09 11:59:38;;;;;;;4.95;3.10;;;;;;;22.32;57.89;101579.94;143724;584;48002;-65
2021/10/09 12:02:05;;;;;;;4.70;3.45;;;;;;;22.32;59.33;101588.16;143723;578;47008;-64
2021/10/09 12:04:32;;;;;;;4.37;3.62;;;;;;;22.37;59.29;101581.91;143722;600;48002;-65
2021/10/09 12:07:09;;;;;;;5.85;3.62;;;;;;;22.38;58.50;101581.63;143724;582;46006;-65
2021/10/09 12:09:38;;;;;;;4.32;3.47;;;;;;;22.38;58.47;101581.63;143726;625;47004;-64
2021/10/09 12:12:36;;;;;;;7.60;4.03;;;;;;;22.38;59.46;101581.63;143724;589;47010;-64
2021/10/09 12:15:03;;;;;;;7.80;4.05;;;;;;;22.36;58.51;101582.97;143723;573;47004;-65
2021/10/09 12:17:37;;;;;;;8.45;3.85;;;;;;;22.32;59.43;101582.66;143725;743;47000;-65
2021/10/09 12:20:06;;;;;;;8.98;3.75;;;;;;;22.31;59.07;101574.69;143725;603;47002;-64
2021/10/09 12:22:47;;;;;;;5.15;2.65;;;;;;;22.32;59.11;101576.34;143727;575;47008;-65
2021/10/09 12:25:30;;;;;;;5.25;2.80;;;;;;;22.27;58.50;101574.41;143718;579;50008;-65
2021/10/09 12:27:59;;;;;;;5.87;3.58;;;;;;;22.24;59.08;101575.72;143726;584;46006;-64
2021/10/09 12:30:48;;;;;;;6.28;3.95;;;;;;;22.27;58.83;101574.41;143721;586;49000;-64
2021/10/09 12:33:43;;;;;;;4.95;3.37;;;;;;;22.31;58.47;101577.44;143726;588;47010;-65
2021/10/09 12:36:35;;;;;;;4.60;3.87;;;;;;;22.33;59.48;101575.28;143718;596;48004;-64
2021/10/09 12:39:21;;;;;;;4.97;3.78;;;;;;;22.33;59.21;101565.13;143725;664;47006;-64
2021/10/09 12:41:51;;;;;;;6.82;3.10;;;;;;;22.35;59.51;101567.62;143724;606;48002;-64
2021/10/09 12:44:18;;;;;;;5.50;3.20;;;;;;;22.31;57.77;101575.53;143725;577;47010;-65
2021/10/09 12:46:45;;;;;;;5.62;3.25;;;;;;;22.24;57.76;101564.78;143722;576;47004;-64
2021/10/09 12:49:12;;;;;;;5.15;2.92;;;;;;;22.26;57.61;101572.75;143722;598;47006;-64
2021/10/09 12:51:39;;;;;;;4.97;3.03;;;;;;;22.29;59.10;101580.44;143725;567;47004;-64
2021/10/09 12:54:07;;;;;;;4.35;3.00;;;;;;;22.32;58.34;101568.16;143724;573;47008;-64
2021/10/09 12:56:35;;;;;;;6.55;3.10;;;;;;;22.33;58.63;101575.28;143727;600;47009;-65
2021/10/09 12:59:03;;;;;;;4.60;3.15;;;;;;;22.36;59.31;101572.03;143731;578;46002;-64
2021/10/09 13:01:30;;;;;;;4.87;3.78;;;;;;;22.37;59.89;101565.47;143727;580;46010;-65
2021/10/09 13:03:57;;;;;;;4.97;4.03;;;;;;;22.37;59.99;101560.81;143725;573;47010;-65
2021/10/09 13:06:23;;;;;;;5.50;4.10;;;;;;;22.42;59.75;101565.53;143723;593;47004;-65
2021/10/09 13:08:50;;;;;;;3.90;3.60;;;;;;;22.46;59.74;101553.00;143725;568;46006;-65
2021/10/09 13:11:21;;;;;;;6.55;4.03;;;;;;;22.49;59.81;101547.00;143726;597;47004;-65
2021/10/09 13:13:47;;;;;;;5.18;3.35;;;;;;;22.55;60.37;101539.66;143721;572;47010;-64
2021/10/09 13:16:14;;;;;;;5.87;4.00;;;;;;;22.65;58.85;101541.66;143721;667;47004;-64
2021/10/09 13:18:40;;;;;;;5.05;3.55;;;;;;;22.73;57.87;101543.94;143721;608;46007;-65
2021/10/09 13:21:07;;;;;;;4.62;4.00;;;;;;;22.83;58.31;101540.47;143725;579;47004;-65
2021/10/09 13:23:33;;;;;;;4.57;3.53;;;;;;;22.88;57.43;101543.22;143724;572;47008;-65
2021/10/09 13:26:00;;;;;;;4.03;3.53;;;;;;;22.88;57.11;101540.50;143723;586;47002;-64
2021/10/09 13:28:27;;;;;;;4.22;3.83;;;;;;;22.89;57.25;101536.66;143725;583;46006;-69
2021/10/09 13:30:54;;;;;;;6.20;4.05;;;;;;;22.85;57.44;101543.78;143725;765;47004;-68
2021/10/09 13:33:21;;;;;;;4.97;3.50;;;;;;;22.78;56.97;101554.12;143725;598;46010;-69